sensor_id;sensor_type;location;lat;lon;timestamp;pressure;altitude;pressure_sealevel;temperature;humidity
77192;BME280;66172;48.526;8.078;2024-03-23T00:54:29;98873.78;;;12.01;75.00
77192;BME280;66172;48.526;8.078;2024-03-23T00:56:54;98873.94;;;11.89;75.21
77192;BME280;66172;48.526;8.078;2024-03-23T00:59:20;98868.19;;;11.94;75.03
77192;BME280;66172;48.526;8.078;2024-03-23T01:01:47;98873.94;;;11.89;75.59
77192;BME280;66172;48.526;8.078;2024-03-23T01:04:13;98872.84;;;11.94;75.35
77192;BME280;66172;48.526;8.078;2024-03-23T01:06:39;98864.53;;;12.06;75.03
77192;BME280;66172;48.526;8.078;2024-03-23T01:09:05;98858.16;;;11.98;75.51
77192;BME280;66172;48.526;8.078;2024-03-23T01:11:31;98863.53;;;11.95;75.24
77192;BME280;66172;48.526;8.078;2024-03-23T01:13:57;98859.69;;;11.77;76.34
77192;BME280;66172;48.526;8.078;2024-03-23T01:16:23;98855.75;;;11.74;76.46
77192;BME280;66172;48.526;8.078;2024-03-23T01:18:49;98855.50;;;11.83;76.46
77192;BME280;66172;48.526;8.078;2024-03-23T01:21:15;98858.31;;;11.86;76.09
77192;BME280;66172;48.526;8.078;2024-03-23T01:23:41;98858.47;;;11.74;76.94
77192;BME280;66172;48.526;8.078;2024-03-23T01:26:07;98853.75;;;11.71;77.24
77192;BME280;66172;48.526;8.078;2024-03-23T01:28:33;98847.03;;;11.69;77.68
77192;BME280;66172;48.526;8.078;2024-03-23T01:30:59;98842.97;;;11.59;78.12
77192;BME280;66172;48.526;8.078;2024-03-23T01:33:25;98847.75;;;11.66;78.30
77192;BME280;66172;48.526;8.078;2024-03-23T01:35:51;98835.34;;;11.68;77.79
77192;BME280;66172;48.526;8.078;2024-03-23T01:38:17;98841.69;;;11.72;77.50
77192;BME280;66172;48.526;8.078;2024-03-23T01:40:43;98847.13;;;11.72;77.60
77192;BME280;66172;48.526;8.078;2024-03-23T01:43:09;98839.47;;;11.78;77.73
77192;BME280;66172;48.526;8.078;2024-03-23T01:45:34;98839.47;;;11.78;77.27
77192;BME280;66172;48.526;8.078;2024-03-23T01:48:01;98839.91;;;11.80;77.43
77192;BME280;66172;48.526;8.078;2024-03-23T01:50:27;98832.88;;;11.79;77.64
77192;BME280;66172;48.526;8.078;2024-03-23T01:52:53;98838.88;;;11.69;78.39
77192;BME280;66172;48.526;8.078;2024-03-23T01:55:20;98838.94;;;11.91;76.54
77192;BME280;66172;48.526;8.078;2024-03-23T01:57:46;98844.34;;;12.11;75.55
77192;BME280;66172;48.526;8.078;2024-03-23T02:00:12;98847.06;;;12.33;74.24
77192;BME280;66172;48.526;8.078;2024-03-23T02:02:45;98847.97;;;12.90;71.28
77192;BME280;66172;48.526;8.078;2024-03-23T02:05:12;98847.22;;;13.19;69.49
77192;BME280;66172;48.526;8.078;2024-03-23T02:07:39;98858.69;;;13.32;68.62
77192;BME280;66172;48.526;8.078;2024-03-23T02:10:09;98845.81;;;13.66;66.76
77192;BME280;66172;48.526;8.078;2024-03-23T02:12:36;98844.56;;;13.56;67.18
77192;BME280;66172;48.526;8.078;2024-03-23T02:15:02;98845.66;;;13.51;67.46
77192;BME280;66172;48.526;8.078;2024-03-23T02:17:30;98837.94;;;13.57;66.92
77192;BME280;66172;48.526;8.078;2024-03-23T02:19:56;98837.50;;;13.55;66.97
77192;BME280;66172;48.526;8.078;2024-03-23T02:22:22;98846.09;;;13.54;66.88
77192;BME280;66172;48.526;8.078;2024-03-23T02:24:48;98830.31;;;13.73;66.33
77192;BME280;66172;48.526;8.078;2024-03-23T02:27:14;98824.47;;;13.75;66.08
77192;BME280;66172;48.526;8.078;2024-03-23T02:29:40;98820.53;;;13.72;66.27
77192;BME280;66172;48.526;8.078;2024-03-23T02:32:06;98823.59;;;13.67;66.53
77192;BME280;66172;48.526;8.078;2024-03-23T02:34:35;98830.34;;;13.77;66.34
77192;BME280;66172;48.526;8.078;2024-03-23T02:37:01;98825.22;;;13.72;66.78
77192;BME280;66172;48.526;8.078;2024-03-23T02:39:27;98828.00;;;13.75;66.28
77192;BME280;66172;48.526;8.078;2024-03-23T02:41:53;98832.00;;;13.85;65.97
77192;BME280;66172;48.526;8.078;2024-03-23T02:44:19;98831.22;;;13.84;65.71
77192;BME280;66172;48.526;8.078;2024-03-23T02:46:45;98822.94;;;13.77;65.61
77192;BME280;66172;48.526;8.078;2024-03-23T02:49:11;98818.22;;;13.74;66.36
77192;BME280;66172;48.526;8.078;2024-03-23T02:51:37;98791.25;;;13.73;66.48
77192;BME280;66172;48.526;8.078;2024-03-23T02:54:02;98776.00;;;13.68;66.24
77192;BME280;66172;48.526;8.078;2024-03-23T02:56:28;98789.25;;;13.66;66.82
77192;BME280;66172;48.526;8.078;2024-03-23T02:58:54;98786.50;;;13.66;66.96
77192;BME280;66172;48.526;8.078;2024-03-23T03:01:20;98776.81;;;13.72;66.77
77192;BME280;66172;48.526;8.078;2024-03-23T03:03:46;98773.66;;;13.67;67.18
77192;BME280;66172;48.526;8.078;2024-03-23T03:06:22;98757.56;;;13.62;67.44
77192;BME280;66172;48.526;8.078;2024-03-23T03:08:49;98756.75;;;13.54;67.44
77192;BME280;66172;48.526;8.078;2024-03-23T03:11:14;98752.78;;;13.51;68.10
77192;BME280;66172;48.526;8.078;2024-03-23T03:13:40;98752.41;;;13.49;68.41
77192;BME280;66172;48.526;8.078;2024-03-23T03:16:12;98753.47;;;13.41;68.89
77192;BME280;66172;48.526;8.078;2024-03-23T03:18:39;98753.81;;;13.36;69.02
77192;BME280;66172;48.526;8.078;2024-03-23T03:21:06;98759.00;;;13.48;68.12
77192;BME280;66172;48.526;8.078;2024-03-23T03:23:37;98769.16;;;13.48;68.55
77192;BME280;66172;48.526;8.078;2024-03-23T03:26:04;98764.41;;;13.41;68.99
77192;BME280;66172;48.526;8.078;2024-03-23T03:28:33;98759.69;;;13.75;67.65
77192;BME280;66172;48.526;8.078;2024-03-23T03:31:00;98761.56;;;13.68;68.00
77192;BME280;66172;48.526;8.078;2024-03-23T03:33:28;98772.81;;;13.63;68.62
77192;BME280;66172;48.526;8.078;2024-03-23T03:35:55;98763.78;;;13.59;68.91
77192;BME280;66172;48.526;8.078;2024-03-23T03:38:21;98731.72;;;13.52;68.32
77192;BME280;66172;48.526;8.078;2024-03-23T03:40:47;98729.44;;;13.54;68.18
77192;BME280;66172;48.526;8.078;2024-03-23T03:43:13;98739.53;;;13.50;68.49
77192;BME280;66172;48.526;8.078;2024-03-23T03:45:39;98747.28;;;13.48;68.69
77192;BME280;66172;48.526;8.078;2024-03-23T03:48:06;98758.19;;;13.44;68.67
77192;BME280;66172;48.526;8.078;2024-03-23T03:50:32;98748.88;;;13.49;67.90
77192;BME280;66172;48.526;8.078;2024-03-23T03:52:58;98747.28;;;13.48;68.14
77192;BME280;66172;48.526;8.078;2024-03-23T03:55:24;98743.00;;;13.47;68.36
77192;BME280;66172;48.526;8.078;2024-03-23T03:57:49;98770.97;;;13.33;71.70
77192;BME280;66172;48.526;8.078;2024-03-23T04:00:15;98790.25;;;13.18;75.29
77192;BME280;66172;48.526;8.078;2024-03-23T04:02:41;98807.75;;;12.87;79.19
77192;BME280;66172;48.526;8.078;2024-03-23T04:05:07;98806.66;;;12.65;81.28
77192;BME280;66172;48.526;8.078;2024-03-23T04:07:33;98814.88;;;12.42;84.13
77192;BME280;66172;48.526;8.078;2024-03-23T04:09:59;98817.81;;;12.30;85.75
77192;BME280;66172;48.526;8.078;2024-03-23T04:12:25;98810.31;;;12.24;87.55
77192;BME280;66172;48.526;8.078;2024-03-23T04:14:51;98808.03;;;12.03;89.57
77192;BME280;66172;48.526;8.078;2024-03-23T04:17:17;98791.69;;;12.03;90.11
77192;BME280;66172;48.526;8.078;2024-03-23T04:19:44;98793.31;;;11.85;91.50
77192;BME280;66172;48.526;8.078;2024-03-23T04:22:10;98801.03;;;11.83;92.55
77192;BME280;66172;48.526;8.078;2024-03-23T04:24:36;98800.97;;;11.79;93.30
77192;BME280;66172;48.526;8.078;2024-03-23T04:27:02;98809.59;;;11.81;93.89
77192;BME280;66172;48.526;8.078;2024-03-23T04:29:28;98828.28;;;11.83;95.37
77192;BME280;66172;48.526;8.078;2024-03-23T04:31:54;98837.31;;;11.87;95.69
77192;BME280;66172;48.526;8.078;2024-03-23T04:34:21;98838.09;;;11.87;95.84
77192;BME280;66172;48.526;8.078;2024-03-23T04:36:48;98827.19;;;11.87;96.14
77192;BME280;66172;48.526;8.078;2024-03-23T04:39:14;98838.81;;;11.84;96.38
77192;BME280;66172;48.526;8.078;2024-03-23T04:41:40;98828.13;;;11.76;96.45
77192;BME280;66172;48.526;8.078;2024-03-23T04:44:06;98844.25;;;11.65;96.55
77192;BME280;66172;48.526;8.078;2024-03-23T04:46:32;98832.03;;;11.75;95.88
77192;BME280;66172;48.526;8.078;2024-03-23T04:48:58;98846.34;;;11.72;95.35
77192;BME280;66172;48.526;8.078;2024-03-23T04:51:24;98840.13;;;11.71;94.74
77192;BME280;66172;48.526;8.078;2024-03-23T04:53:50;98844.50;;;11.57;94.47
77192;BME280;66172;48.526;8.078;2024-03-23T04:56:16;98863.47;;;11.53;95.87
77192;BME280;66172;48.526;8.078;2024-03-23T04:58:43;98867.47;;;11.40;96.31
77192;BME280;66172;48.526;8.078;2024-03-23T05:01:10;98886.75;;;11.31;97.03
77192;BME280;66172;48.526;8.078;2024-03-23T05:03:36;98896.03;;;11.30;96.18
77192;BME280;66172;48.526;8.078;2024-03-23T05:06:02;98898.34;;;11.28;96.03
77192;BME280;66172;48.526;8.078;2024-03-23T05:08:28;98906.75;;;11.39;95.09
77192;BME280;66172;48.526;8.078;2024-03-23T05:10:54;98914.84;;;11.35;95.06
77192;BME280;66172;48.526;8.078;2024-03-23T05:13:20;98930.16;;;11.09;95.69
77192;BME280;66172;48.526;8.078;2024-03-23T05:15:53;98928.63;;;10.92;96.40
77192;BME280;66172;48.526;8.078;2024-03-23T05:18:19;98922.91;;;10.97;96.30
77192;BME280;66172;48.526;8.078;2024-03-23T05:20:45;98935.91;;;10.72;96.04
77192;BME280;66172;48.526;8.078;2024-03-23T05:23:11;98942.84;;;10.85;94.32
77192;BME280;66172;48.526;8.078;2024-03-23T05:25:37;98942.16;;;10.73;94.34
77192;BME280;66172;48.526;8.078;2024-03-23T05:28:03;98942.38;;;10.52;94.23
77192;BME280;66172;48.526;8.078;2024-03-23T05:30:29;98948.00;;;10.43;94.15
77192;BME280;66172;48.526;8.078;2024-03-23T05:32:55;98943.69;;;10.42;92.84
77192;BME280;66172;48.526;8.078;2024-03-23T05:35:21;98941.16;;;10.34;92.98
77192;BME280;66172;48.526;8.078;2024-03-23T05:37:47;98950.59;;;10.24;92.13
77192;BME280;66172;48.526;8.078;2024-03-23T05:40:13;98965.44;;;10.27;93.43
77192;BME280;66172;48.526;8.078;2024-03-23T05:42:41;98970.97;;;10.30;92.82
77192;BME280;66172;48.526;8.078;2024-03-23T05:45:07;98974.81;;;10.29;92.91
77192;BME280;66172;48.526;8.078;2024-03-23T05:47:33;98984.56;;;10.30;93.16
77192;BME280;66172;48.526;8.078;2024-03-23T05:49:59;98989.09;;;10.26;91.21
77192;BME280;66172;48.526;8.078;2024-03-23T05:52:25;98996.03;;;10.39;90.35
77192;BME280;66172;48.526;8.078;2024-03-23T05:54:52;98993.22;;;10.20;88.43
77192;BME280;66172;48.526;8.078;2024-03-23T05:57:18;98992.00;;;10.06;88.04
77192;BME280;66172;48.526;8.078;2024-03-23T05:59:45;98999.84;;;9.95;88.63
77192;BME280;66172;48.526;8.078;2024-03-23T06:02:11;99013.16;;;10.00;88.93
77192;BME280;66172;48.526;8.078;2024-03-23T06:04:37;99011.50;;;9.95;89.61
77192;BME280;66172;48.526;8.078;2024-03-23T06:07:03;99019.44;;;9.88;90.05
77192;BME280;66172;48.526;8.078;2024-03-23T06:09:32;99016.56;;;9.97;89.33
77192;BME280;66172;48.526;8.078;2024-03-23T06:11:57;99018.59;;;10.00;88.07
77192;BME280;66172;48.526;8.078;2024-03-23T06:14:23;99022.41;;;10.11;87.14
77192;BME280;66172;48.526;8.078;2024-03-23T06:16:49;99036.38;;;9.97;86.26
77192;BME280;66172;48.526;8.078;2024-03-23T06:19:15;99049.38;;;10.04;87.04
77192;BME280;66172;48.526;8.078;2024-03-23T06:21:44;99056.03;;;10.07;87.40
77192;BME280;66172;48.526;8.078;2024-03-23T06:24:17;99067.84;;;9.98;86.68
77192;BME280;66172;48.526;8.078;2024-03-23T06:26:43;99065.84;;;9.83;86.68
77192;BME280;66172;48.526;8.078;2024-03-23T06:29:09;99073.06;;;9.79;86.99
77192;BME280;66172;48.526;8.078;2024-03-23T06:31:35;99078.88;;;9.66;86.24
77192;BME280;66172;48.526;8.078;2024-03-23T06:34:01;99086.31;;;9.69;87.05
77192;BME280;66172;48.526;8.078;2024-03-23T06:36:27;99082.94;;;9.60;87.19
77192;BME280;66172;48.526;8.078;2024-03-23T06:38:53;99095.03;;;9.50;86.47
77192;BME280;66172;48.526;8.078;2024-03-23T06:41:19;99093.47;;;9.61;86.60
77192;BME280;66172;48.526;8.078;2024-03-23T06:43:45;99101.94;;;9.47;87.10
77192;BME280;66172;48.526;8.078;2024-03-23T06:46:11;99095.06;;;9.38;88.52
77192;BME280;66172;48.526;8.078;2024-03-23T06:48:37;99083.72;;;9.36;89.56
77192;BME280;66172;48.526;8.078;2024-03-23T06:51:03;99107.03;;;9.37;90.20
77192;BME280;66172;48.526;8.078;2024-03-23T06:53:29;99122.97;;;9.38;89.22
77192;BME280;66172;48.526;8.078;2024-03-23T06:55:55;99134.84;;;9.34;89.81
77192;BME280;66172;48.526;8.078;2024-03-23T06:58:22;99136.63;;;9.30;89.17
77192;BME280;66172;48.526;8.078;2024-03-23T07:00:48;99148.84;;;9.24;88.98
77192;BME280;66172;48.526;8.078;2024-03-23T07:03:15;99170.75;;;9.19;89.04
77192;BME280;66172;48.526;8.078;2024-03-23T07:05:41;99176.06;;;9.15;87.69
77192;BME280;66172;48.526;8.078;2024-03-23T07:08:08;99177.88;;;9.11;86.27
77192;BME280;66172;48.526;8.078;2024-03-23T07:10:34;99186.75;;;8.99;85.17
77192;BME280;66172;48.526;8.078;2024-03-23T07:12:59;99179.78;;;9.11;86.24
77192;BME280;66172;48.526;8.078;2024-03-23T07:15:25;99190.53;;;9.19;84.99
77192;BME280;66172;48.526;8.078;2024-03-23T07:17:51;99186.97;;;9.39;84.87
77192;BME280;66172;48.526;8.078;2024-03-23T07:20:18;99186.19;;;9.39;84.26
77192;BME280;66172;48.526;8.078;2024-03-23T07:22:46;99200.09;;;9.37;84.70
77192;BME280;66172;48.526;8.078;2024-03-23T07:25:13;99207.22;;;9.42;83.57
77192;BME280;66172;48.526;8.078;2024-03-23T07:27:39;99210.72;;;9.42;82.41
77192;BME280;66172;48.526;8.078;2024-03-23T07:30:06;99211.97;;;9.57;82.17
77192;BME280;66172;48.526;8.078;2024-03-23T07:32:32;99215.13;;;9.47;81.56
77192;BME280;66172;48.526;8.078;2024-03-23T07:34:57;99215.25;;;9.50;82.65
77192;BME280;66172;48.526;8.078;2024-03-23T07:37:23;99225.22;;;9.59;82.08
77192;BME280;66172;48.526;8.078;2024-03-23T07:39:49;99238.81;;;9.59;81.77
77192;BME280;66172;48.526;8.078;2024-03-23T07:42:15;99243.09;;;9.60;82.05
77192;BME280;66172;48.526;8.078;2024-03-23T07:44:41;99257.47;;;9.72;80.26
77192;BME280;66172;48.526;8.078;2024-03-23T07:47:07;99259.66;;;9.79;79.61
77192;BME280;66172;48.526;8.078;2024-03-23T07:49:33;99264.31;;;11.03;73.06
77192;BME280;66172;48.526;8.078;2024-03-23T07:51:59;99266.84;;;11.67;71.06
77192;BME280;66172;48.526;8.078;2024-03-23T07:54:24;99274.19;;;11.51;69.61
77192;BME280;66172;48.526;8.078;2024-03-23T07:56:50;99274.44;;;11.89;67.61
77192;BME280;66172;48.526;8.078;2024-03-23T07:59:16;99283.59;;;11.81;66.95
77192;BME280;66172;48.526;8.078;2024-03-23T08:01:44;99293.34;;;11.27;66.65
77192;BME280;66172;48.526;8.078;2024-03-23T08:04:10;99281.59;;;10.83;66.91
77192;BME280;66172;48.526;8.078;2024-03-23T08:06:35;99292.50;;;10.71;68.36
77192;BME280;66172;48.526;8.078;2024-03-23T08:09:03;99283.53;;;10.70;69.59
77192;BME280;66172;48.526;8.078;2024-03-23T08:11:30;99283.75;;;10.77;68.11
77192;BME280;66172;48.526;8.078;2024-03-23T08:13:57;99278.38;;;10.41;69.48
77192;BME280;66172;48.526;8.078;2024-03-23T08:16:23;99282.22;;;10.40;70.24
77192;BME280;66172;48.526;8.078;2024-03-23T08:18:53;99287.22;;;10.26;70.58
77192;BME280;66172;48.526;8.078;2024-03-23T08:21:19;99292.69;;;9.93;73.03
77192;BME280;66172;48.526;8.078;2024-03-23T08:23:45;99303.06;;;9.67;73.16
77192;BME280;66172;48.526;8.078;2024-03-23T08:26:13;99315.66;;;9.83;71.79
77192;BME280;66172;48.526;8.078;2024-03-23T08:28:39;99315.81;;;10.84;69.25
77192;BME280;66172;48.526;8.078;2024-03-23T08:31:07;99328.13;;;11.73;65.45
77192;BME280;66172;48.526;8.078;2024-03-23T08:33:34;99333.16;;;11.87;64.81
77192;BME280;66172;48.526;8.078;2024-03-23T08:36:10;99334.78;;;11.48;60.88
77192;BME280;66172;48.526;8.078;2024-03-23T08:38:46;99335.81;;;11.99;57.24
77192;BME280;66172;48.526;8.078;2024-03-23T08:41:12;99329.19;;;12.00;57.33
77192;BME280;66172;48.526;8.078;2024-03-23T08:43:40;99345.75;;;12.54;56.64
77192;BME280;66172;48.526;8.078;2024-03-23T08:46:08;99332.97;;;13.09;56.45
77192;BME280;66172;48.526;8.078;2024-03-23T08:48:35;99337.38;;;13.32;53.55
77192;BME280;66172;48.526;8.078;2024-03-23T08:51:05;99333.50;;;12.98;52.28
77192;BME280;66172;48.526;8.078;2024-03-23T08:53:32;99339.69;;;12.95;53.33
77192;BME280;66172;48.526;8.078;2024-03-23T08:55:59;99329.56;;;12.45;52.96
77192;BME280;66172;48.526;8.078;2024-03-23T08:58:27;99333.78;;;12.12;54.53
77192;BME280;66172;48.526;8.078;2024-03-23T09:00:55;99339.84;;;12.05;55.91
77192;BME280;66172;48.526;8.078;2024-03-23T09:03:22;99333.97;;;12.03;56.48
77192;BME280;66172;48.526;8.078;2024-03-23T09:05:49;99326.38;;;11.96;56.63
77192;BME280;66172;48.526;8.078;2024-03-23T09:08:15;99335.75;;;11.68;56.88
77192;BME280;66172;48.526;8.078;2024-03-23T09:10:41;99337.00;;;11.86;56.92
77192;BME280;66172;48.526;8.078;2024-03-23T09:13:08;99342.31;;;12.26;56.51
77192;BME280;66172;48.526;8.078;2024-03-23T09:15:36;99342.31;;;12.26;55.96
77192;BME280;66172;48.526;8.078;2024-03-23T09:18:02;99345.06;;;12.41;55.43
77192;BME280;66172;48.526;8.078;2024-03-23T09:20:28;99346.38;;;12.32;55.31
77192;BME280;66172;48.526;8.078;2024-03-23T09:22:54;99345.81;;;12.42;54.38
77192;BME280;66172;48.526;8.078;2024-03-23T09:25:20;99352.75;;;12.71;53.79
77192;BME280;66172;48.526;8.078;2024-03-23T09:27:46;99343.66;;;12.98;54.13
77192;BME280;66172;48.526;8.078;2024-03-23T09:30:13;99342.34;;;14.07;51.67
77192;BME280;66172;48.526;8.078;2024-03-23T09:32:43;99350.97;;;14.55;50.96
77192;BME280;66172;48.526;8.078;2024-03-23T09:35:10;99355.16;;;14.26;50.14
77192;BME280;66172;48.526;8.078;2024-03-23T09:37:36;99341.28;;;15.13;49.03
77192;BME280;66172;48.526;8.078;2024-03-23T09:40:02;99343.84;;;15.95;46.96
77192;BME280;66172;48.526;8.078;2024-03-23T09:42:28;99343.03;;;15.28;46.24
77192;BME280;66172;48.526;8.078;2024-03-23T09:44:57;99340.75;;;14.78;47.15
77192;BME280;66172;48.526;8.078;2024-03-23T09:47:24;99342.78;;;14.55;47.25
77192;BME280;66172;48.526;8.078;2024-03-23T09:49:51;99366.88;;;14.26;48.54
77192;BME280;66172;48.526;8.078;2024-03-23T09:52:17;99395.19;;;12.84;52.11
77192;BME280;66172;48.526;8.078;2024-03-23T09:54:43;99412.06;;;11.83;55.83
77192;BME280;66172;48.526;8.078;2024-03-23T09:57:09;99425.34;;;9.91;63.91
77192;BME280;66172;48.526;8.078;2024-03-23T09:59:35;99414.91;;;9.81;66.91
77192;BME280;66172;48.526;8.078;2024-03-23T10:02:04;99435.28;;;9.87;67.87
77192;BME280;66172;48.526;8.078;2024-03-23T10:04:42;99438.09;;;9.58;69.63
77192;BME280;66172;48.526;8.078;2024-03-23T10:07:14;99436.47;;;9.15;72.21
77192;BME280;66172;48.526;8.078;2024-03-23T10:09:40;99430.56;;;8.92;73.27
77192;BME280;66172;48.526;8.078;2024-03-23T10:12:13;99433.75;;;8.57;75.98
77192;BME280;66172;48.526;8.078;2024-03-23T10:14:40;99434.50;;;8.66;76.23
77192;BME280;66172;48.526;8.078;2024-03-23T10:19:44;99425.03;;;8.51;76.58
77192;BME280;66172;48.526;8.078;2024-03-23T10:22:14;99418.88;;;8.33;78.27
77192;BME280;66172;48.526;8.078;2024-03-23T10:24:43;99411.97;;;8.27;79.22
77192;BME280;66172;48.526;8.078;2024-03-23T10:27:10;99397.63;;;8.44;80.18
77192;BME280;66172;48.526;8.078;2024-03-23T10:29:40;99400.69;;;8.72;80.19
77192;BME280;66172;48.526;8.078;2024-03-23T10:32:10;99409.25;;;8.82;77.37
77192;BME280;66172;48.526;8.078;2024-03-23T10:34:37;99419.56;;;8.89;77.17
77192;BME280;66172;48.526;8.078;2024-03-23T10:37:04;99426.06;;;8.96;76.44
77192;BME280;66172;48.526;8.078;2024-03-23T10:39:35;99431.00;;;8.94;76.15
77192;BME280;66172;48.526;8.078;2024-03-23T10:42:03;99444.06;;;9.01;76.86
77192;BME280;66172;48.526;8.078;2024-03-23T10:44:29;99446.06;;;9.13;77.16
77192;BME280;66172;48.526;8.078;2024-03-23T10:46:59;99439.53;;;9.14;77.14
77192;BME280;66172;48.526;8.078;2024-03-23T10:49:28;99423.72;;;9.36;74.53
77192;BME280;66172;48.526;8.078;2024-03-23T10:52:04;99416.91;;;9.30;75.05
77192;BME280;66172;48.526;8.078;2024-03-23T10:54:32;99415.13;;;9.55;68.83
77192;BME280;66172;48.526;8.078;2024-03-23T10:57:18;99412.59;;;9.71;67.71
77192;BME280;66172;48.526;8.078;2024-03-23T10:59:46;99416.06;;;9.92;67.26
77192;BME280;66172;48.526;8.078;2024-03-23T11:02:21;99418.81;;;10.04;68.66
77192;BME280;66172;48.526;8.078;2024-03-23T11:04:47;99427.63;;;10.01;69.08
77192;BME280;66172;48.526;8.078;2024-03-23T11:09:54;99425.59;;;9.98;67.56
77192;BME280;66172;48.526;8.078;2024-03-23T11:14:51;99436.16;;;10.12;65.91
77192;BME280;66172;48.526;8.078;2024-03-23T11:17:19;99435.38;;;10.11;66.05
77192;BME280;66172;48.526;8.078;2024-03-23T11:19:53;99426.78;;;10.09;65.82
77192;BME280;66172;48.526;8.078;2024-03-23T11:22:52;99424.19;;;9.38;67.74
77192;BME280;66172;48.526;8.078;2024-03-23T11:25:20;99419.47;;;9.06;70.47
77192;BME280;66172;48.526;8.078;2024-03-23T11:27:48;99417.16;;;9.17;69.68
77192;BME280;66172;48.526;8.078;2024-03-23T11:30:18;99430.16;;;9.32;70.30
77192;BME280;66172;48.526;8.078;2024-03-23T11:32:48;99419.75;;;9.54;70.92
77192;BME280;66172;48.526;8.078;2024-03-23T11:35:37;99418.53;;;9.85;70.20
77192;BME280;66172;48.526;8.078;2024-03-23T11:38:10;99419.38;;;9.97;68.77
77192;BME280;66172;48.526;8.078;2024-03-23T11:43:08;99404.41;;;9.38;69.16
77192;BME280;66172;48.526;8.078;2024-03-23T11:45:43;99396.06;;;8.72;72.16
77192;BME280;66172;48.526;8.078;2024-03-23T11:50:38;99411.16;;;9.11;72.52
77192;BME280;66172;48.526;8.078;2024-03-23T11:53:13;99405.63;;;10.15;68.03
77192;BME280;66172;48.526;8.078;2024-03-23T11:55:59;99414.63;;;11.12;64.45
77192;BME280;66172;48.526;8.078;2024-03-23T11:58:27;99401.91;;;11.96;61.61
77192;BME280;66172;48.526;8.078;2024-03-23T12:00:56;99393.63;;;12.51;59.06
77192;BME280;66172;48.526;8.078;2024-03-23T12:03:24;99390.53;;;11.66;61.95
77192;BME280;66172;48.526;8.078;2024-03-23T12:05:58;99390.53;;;11.38;63.69
77192;BME280;66172;48.526;8.078;2024-03-23T12:08:29;99375.81;;;11.27;64.06
77192;BME280;66172;48.526;8.078;2024-03-23T12:11:11;99367.38;;;11.44;61.83
77192;BME280;66172;48.526;8.078;2024-03-23T12:13:38;99361.13;;;11.44;61.98
77192;BME280;66172;48.526;8.078;2024-03-23T12:16:18;99360.91;;;11.77;61.16
77192;BME280;66172;48.526;8.078;2024-03-23T12:18:47;99362.59;;;11.69;63.10
77192;BME280;66172;48.526;8.078;2024-03-23T12:21:15;99353.91;;;11.36;65.93
77192;BME280;66172;48.526;8.078;2024-03-23T12:23:42;99356.91;;;12.18;61.40
77192;BME280;66172;48.526;8.078;2024-03-23T12:26:11;99360.97;;;12.55;60.09
77192;BME280;66172;48.526;8.078;2024-03-23T12:28:38;99348.09;;;12.71;59.64
77192;BME280;66172;48.526;8.078;2024-03-23T12:31:04;99350.75;;;12.68;56.67
77192;BME280;66172;48.526;8.078;2024-03-23T12:33:31;99347.09;;;13.30;57.25
77192;BME280;66172;48.526;8.078;2024-03-23T12:35:58;99338.97;;;13.52;57.18
77192;BME280;66172;48.526;8.078;2024-03-23T12:38:24;99347.66;;;13.39;55.88
77192;BME280;66172;48.526;8.078;2024-03-23T12:40:50;99339.81;;;13.57;55.13
77192;BME280;66172;48.526;8.078;2024-03-23T12:43:17;99330.50;;;13.03;56.14
77192;BME280;66172;48.526;8.078;2024-03-23T12:45:49;99335.31;;;13.26;54.68
77192;BME280;66172;48.526;8.078;2024-03-23T12:48:18;99338.13;;;13.29;53.78
77192;BME280;66172;48.526;8.078;2024-03-23T12:50:44;99322.72;;;13.21;52.43
77192;BME280;66172;48.526;8.078;2024-03-23T12:53:10;99318.25;;;13.51;51.61
77192;BME280;66172;48.526;8.078;2024-03-23T12:55:36;99316.78;;;12.65;53.22
77192;BME280;66172;48.526;8.078;2024-03-23T12:58:02;99300.16;;;12.89;51.23
77192;BME280;66172;48.526;8.078;2024-03-23T13:00:28;99337.25;;;12.75;49.54
77192;BME280;66172;48.526;8.078;2024-03-23T13:02:54;99331.94;;;12.16;51.00
77192;BME280;66172;48.526;8.078;2024-03-23T13:05:20;99330.63;;;11.66;53.37
77192;BME280;66172;48.526;8.078;2024-03-23T13:07:46;99332.03;;;11.60;53.99
77192;BME280;66172;48.526;8.078;2024-03-23T13:10:12;99328.94;;;11.62;52.03
77192;BME280;66172;48.526;8.078;2024-03-23T13:12:38;99324.78;;;11.80;52.13
77192;BME280;66172;48.526;8.078;2024-03-23T13:15:05;99317.00;;;12.41;51.37
77192;BME280;66172;48.526;8.078;2024-03-23T13:17:31;99314.91;;;13.04;50.35
77192;BME280;66172;48.526;8.078;2024-03-23T13:19:57;99301.88;;;13.32;48.27
77192;BME280;66172;48.526;8.078;2024-03-23T13:22:23;99304.06;;;13.08;45.70
77192;BME280;66172;48.526;8.078;2024-03-23T13:24:49;99301.94;;;12.63;45.34
77192;BME280;66172;48.526;8.078;2024-03-23T13:27:15;99312.50;;;12.33;46.15
77192;BME280;66172;48.526;8.078;2024-03-23T13:29:41;99302.13;;;12.07;45.93
77192;BME280;66172;48.526;8.078;2024-03-23T13:32:07;99302.31;;;11.98;45.53
77192;BME280;66172;48.526;8.078;2024-03-23T13:34:33;99286.50;;;11.88;46.26
77192;BME280;66172;48.526;8.078;2024-03-23T13:37:00;99270.75;;;11.82;46.91
77192;BME280;66172;48.526;8.078;2024-03-23T13:39:26;99255.41;;;11.62;47.49
77192;BME280;66172;48.526;8.078;2024-03-23T13:41:55;99267.19;;;11.50;49.08
77192;BME280;66172;48.526;8.078;2024-03-23T13:44:21;99258.22;;;11.49;49.39
77192;BME280;66172;48.526;8.078;2024-03-23T13:46:47;99282.47;;;11.27;52.37
77192;BME280;66172;48.526;8.078;2024-03-23T13:49:31;99286.50;;;11.05;55.54
77192;BME280;66172;48.526;8.078;2024-03-23T13:52:00;99285.81;;;10.68;57.02
77192;BME280;66172;48.526;8.078;2024-03-23T13:54:26;99299.25;;;10.89;57.18
77192;BME280;66172;48.526;8.078;2024-03-23T13:56:53;99297.69;;;11.16;58.99
77192;BME280;66172;48.526;8.078;2024-03-23T13:59:23;99305.69;;;11.64;57.58
77192;BME280;66172;48.526;8.078;2024-03-23T14:01:50;99290.25;;;11.84;56.60
77192;BME280;66172;48.526;8.078;2024-03-23T14:04:19;99294.78;;;11.64;57.35
77192;BME280;66172;48.526;8.078;2024-03-23T14:06:48;99291.78;;;11.53;57.18
77192;BME280;66172;48.526;8.078;2024-03-23T14:09:14;99293.72;;;11.53;56.30